Current Weather

Porter County Rgnl

Valparaiso, Indiana (KVPZ)

Report from: Friday, March 1, 2024 1:56 PM CST
Current time: Friday, March 1, 2024 2:59 PM CST

Nearby weather – Weather history – Daily summaries
Weather forecast

Temperature7.2°C (45.0°F)
Wind chill5.1°C (41.2°F)
Dew point-6.1°C (21.0°F)
Winds 6 kts (3.1 m/s, 6.9 mph) South (170°)
Visibility10 mi. (16.1 km)
Clouds Ceiling: Overcast 5,000 ft. (1,524 m)
Altimeter30.14 in.Hg (1021 mB)
Relative humidity38 %
Density altitude-1,146 ft. (-349 m)
Sea-level pressure102.1 kPa (1021 mB, 30.16 in.Hg)
Remarks Fully automated report
Automated weather observing station with precipitation discriminator
Flight conditions Visual Meteorological Conditions
Raw dataKVPZ 011956Z AUTO 17006KT 10SM OVC050 07/M06 A3014 RMK AO2 SLP213 T00721061
An unhandled exception has occurred. See browser dev tools for details. Reload 🗙